Terminal Aerodrome Forecast
Issued by NWS Jackson, MS

Home | Current Version | Previous Version | Text Only | Print | Product List | Glossary On
Versions: 1 2 3 4 5 6 7 8 9 10 11 12 13 14 15 16 17
890
FTUS44 KJAN 290601 RRA
TAFJAN
TAF
KJAN 290601Z 2906/3006 15015KT P6SM SCT015 BKN025
     FM291400 16020G30KT P6SM SCT035 BKN200
     FM292300 15016KT P6SM SCT025=

USA.gov is the U.S. government's official web portal to all federal, state and local government web resources and services.